Time;durP1;ratioP1;P1;durP2;ratioP2;P2;SDS_P1;SDS_P2;PMS_P1;PMS_P2;Temp;Humidity;BMP_temperature;BMP_pressure;BME280_temperature;BME280_humidity;BME280_pressure;Samples;Min_cycle;Max_cycle;Signal;HPM_P1;HPM_P2
2022/09/26 00:02:17;;;;;;;3.65;2.30;;;;;;;;;;4904129;29;20155;-67
2022/09/26 00:04:42;;;;;;;3.95;2.20;;;;;;;;;;4905903;29;20056;-67
2022/09/26 00:07:08;;;;;;;5.28;2.30;;;;;;;;;;4907221;29;20048;-67
2022/09/26 00:09:33;;;;;;;2.45;2.25;;;;;;;;;;4906079;29;20267;-67
2022/09/26 00:11:59;;;;;;;4.55;2.33;;;;;;;;;;4905436;29;20059;-66
2022/09/26 00:14:27;;;;;;;2.50;2.30;;;;;;;;;;4907621;29;20051;-68
2022/09/26 00:16:52;;;;;;;3.38;2.50;;;;;;;;;;4907446;29;20397;-67
2022/09/26 00:19:18;;;;;;;2.20;2.10;;;;;;;;;;4907988;29;20063;-67
2022/09/26 00:21:44;;;;;;;2.92;2.30;;;;;;;;;;4908279;29;20059;-66
2022/09/26 00:24:09;;;;;;;5.32;2.10;;;;;;;;;;4907735;29;20048;-67
2022/09/26 00:26:36;;;;;;;2.42;2.22;;;;;;;;;;4905191;29;20048;-66
2022/09/26 00:29:06;;;;;;;2.13;1.95;;;;;;;;;;4906458;29;20048;-67
2022/09/26 00:31:36;;;;;;;2.40;2.20;;;;;;;;;;4907740;29;20047;-67
2022/09/26 00:34:02;;;;;;;5.93;2.40;;;;;;;;;;4906607;29;20048;-69
2022/09/26 00:36:29;;;;;;;3.05;1.92;;;;;;;;;;4907110;29;20052;-67
2022/09/26 00:38:55;;;;;;;2.03;1.83;;;;;;;;;;4906992;29;21001;-68
2022/09/26 00:41:21;;;;;;;6.05;2.17;;;;;;;;;;4907433;29;21132;-67
2022/09/26 00:43:52;;;;;;;3.05;2.15;;;;;;;;;;4906130;29;20048;-69
2022/09/26 00:46:32;;;;;;;6.28;2.25;;;;;;;;;;4905774;29;20080;-69
2022/09/26 00:49:16;;;;;;;4.40;2.20;;;;;;;;;;4904118;29;20059;-70
2022/09/26 00:51:46;;;;;;;3.10;2.40;;;;;;;;;;4906116;29;20457;-69
2022/09/26 00:54:15;;;;;;;4.95;2.78;;;;;;;;;;4906465;29;20051;-68
2022/09/26 00:56:43;;;;;;;4.28;2.70;;;;;;;;;;4905386;29;21022;-69
2022/09/26 00:59:17;;;;;;;3.10;2.80;;;;;;;;;;4906650;29;20044;-69
2022/09/26 01:01:42;;;;;;;3.03;2.65;;;;;;;;;;4921551;29;20056;-69
2022/09/26 01:04:09;;;;;;;2.92;2.63;;;;;;;;;;4907238;29;20409;-69
2022/09/26 01:06:35;;;;;;;2.53;2.33;;;;;;;;;;4906600;29;20044;-68
2022/09/26 01:09:07;;;;;;;2.90;2.63;;;;;;;;;;4905723;29;20063;-67
2022/09/26 01:11:37;;;;;;;5.28;2.80;;;;;;;;;;4905036;29;20039;-68
2022/09/26 01:14:04;;;;;;;4.50;2.70;;;;;;;;;;4905443;29;20140;-68
2022/09/26 01:16:30;;;;;;;2.90;2.70;;;;;;;;;;4904742;29;20134;-68
2022/09/26 01:18:57;;;;;;;2.60;2.40;;;;;;;;;;4904207;29;20087;-68
2022/09/26 01:21:40;;;;;;;3.42;2.85;;;;;;;;;;4904759;29;20056;-68
2022/09/26 01:24:06;;;;;;;3.55;3.00;;;;;;;;;;4902945;29;21093;-68
2022/09/26 01:27:10;;;;;;;4.05;2.83;;;;;;;;;;4918828;29;20059;-68
2022/09/26 01:29:53;;;;;;;3.20;2.35;;;;;;;;;;4919537;29;20048;-68
2022/09/26 01:32:47;;;;;;;2.97;2.78;;;;;;;;;;4904806;29;20052;-69
2022/09/26 01:35:50;;;;;;;3.20;2.72;;;;;;;;;;4906499;29;20047;-68
2022/09/26 01:38:21;;;;;;;2.47;2.28;;;;;;;;;;4904443;29;20115;-68
2022/09/26 01:41:25;;;;;;;3.95;2.50;;;;;;;;;;4904961;29;20421;-69
2022/09/26 01:44:05;;;;;;;2.50;2.30;;;;;;;;;;4905299;29;20052;-69
2022/09/26 01:47:12;;;;;;;2.20;2.00;;;;;;;;;;4904592;29;20180;-68
2022/09/26 01:49:40;;;;;;;4.65;2.30;;;;;;;;;;4905167;29;20135;-68
2022/09/26 01:52:24;;;;;;;2.65;2.42;;;;;;;;;;4904803;29;20147;-67
2022/09/26 01:54:57;;;;;;;2.20;2.00;;;;;;;;;;4900450;29;20054;-67
2022/09/26 01:57:28;;;;;;;3.00;2.30;;;;;;;;;;4906154;29;20151;-67
2022/09/26 01:59:59;;;;;;;2.28;2.08;;;;;;;;;;4904234;29;20052;-68
2022/09/26 02:02:29;;;;;;;2.17;2.00;;;;;;;;;;4904086;29;20051;-67
2022/09/26 02:05:10;;;;;;;3.05;2.20;;;;;;;;;;4904565;29;20063;-68
2022/09/26 02:07:50;;;;;;;2.40;2.20;;;;;;;;;;4906096;29;20745;-67
2022/09/26 02:10:26;;;;;;;4.10;2.55;;;;;;;;;;4903920;29;20052;-67
2022/09/26 02:13:02;;;;;;;2.83;2.50;;;;;;;;;;4919135;29;20054;-67
2022/09/26 02:15:33;;;;;;;5.13;2.55;;;;;;;;;;4899336;29;20080;-67
2022/09/26 02:18:16;;;;;;;3.33;3.03;;;;;;;;;;4904897;29;20059;-67
2022/09/26 02:20:48;;;;;;;3.35;2.60;;;;;;;;;;4903118;29;20115;-69
2022/09/26 02:23:13;;;;;;;2.53;2.30;;;;;;;;;;4905054;29;20048;-68
2022/09/26 02:25:39;;;;;;;2.92;2.67;;;;;;;;;;4905914;29;20036;-67
2022/09/26 02:28:04;;;;;;;2.65;2.40;;;;;;;;;;4904551;29;20123;-67
2022/09/26 02:30:30;;;;;;;2.20;1.90;;;;;;;;;;4903528;29;20051;-67
2022/09/26 02:32:57;;;;;;;2.20;2.00;;;;;;;;;;4903742;29;20474;-68
2022/09/26 02:38:07;;;;;;;2.33;2.13;;;;;;;;;;4904426;29;20060;-68
2022/09/26 02:40:47;;;;;;;5.72;2.30;;;;;;;;;;4903301;29;20063;-67
2022/09/26 02:43:43;;;;;;;2.22;2.03;;;;;;;;;;4904077;29;20048;-67
2022/09/26 02:46:43;;;;;;;1.90;1.80;;;;;;;;;;4903647;29;20231;-68
2022/09/26 02:49:46;;;;;;;4.47;2.28;;;;;;;;;;4889464;29;20723;-67
2022/09/26 02:52:41;;;;;;;2.63;2.40;;;;;;;;;;4903980;29;20048;-68
2022/09/26 02:55:22;;;;;;;3.17;2.22;;;;;;;;;;4891551;29;20059;-67
2022/09/26 02:58:04;;;;;;;3.50;2.50;;;;;;;;;;4903936;29;20056;-68
2022/09/26 03:00:48;;;;;;;3.63;2.67;;;;;;;;;;4887638;29;20067;-67
2022/09/26 03:03:29;;;;;;;4.47;3.08;;;;;;;;;;4904121;29;20054;-68
2022/09/26 03:05:57;;;;;;;5.82;3.80;;;;;;;;;;4903150;29;20053;-68
2022/09/26 03:08:28;;;;;;;5.32;3.90;;;;;;;;;;4902997;29;20159;-68
2022/09/26 03:10:58;;;;;;;5.95;3.60;;;;;;;;;;4903581;29;20059;-68
2022/09/26 03:13:25;;;;;;;4.13;3.30;;;;;;;;;;4903794;29;20187;-68
2022/09/26 03:15:53;;;;;;;4.47;3.67;;;;;;;;;;4902784;29;20059;-68
2022/09/26 03:18:27;;;;;;;7.93;3.50;;;;;;;;;;4902725;29;20044;-68
2022/09/26 03:20:53;;;;;;;5.88;3.40;;;;;;;;;;4904947;29;20063;-68
2022/09/26 03:23:26;;;;;;;4.60;3.75;;;;;;;;;;4904893;29;20405;-69
2022/09/26 03:26:12;;;;;;;9.90;4.10;;;;;;;;;;4903440;29;20055;-68
2022/09/26 03:28:46;;;;;;;5.35;3.63;;;;;;;;;;4902863;29;20163;-68
2022/09/26 03:31:12;;;;;;;4.32;3.80;;;;;;;;;;4903116;29;20695;-68
2022/09/26 03:33:58;;;;;;;7.15;3.97;;;;;;;;;;4897065;29;20434;-68
2022/09/26 03:36:24;;;;;;;5.38;4.13;;;;;;;;;;4903875;29;20059;-69
2022/09/26 03:38:50;;;;;;;6.93;4.03;;;;;;;;;;4903797;29;20048;-69
2022/09/26 03:41:34;;;;;;;4.63;3.60;;;;;;;;;;4902936;29;20048;-68
2022/09/26 03:44:16;;;;;;;4.35;3.47;;;;;;;;;;4902887;29;20217;-70
2022/09/26 03:47:00;;;;;;;4.15;3.40;;;;;;;;;;4905173;29;20967;-69
2022/09/26 03:49:26;;;;;;;3.25;2.95;;;;;;;;;;4901755;29;20060;-68
2022/09/26 03:51:51;;;;;;;5.55;3.33;;;;;;;;;;4902892;29;20048;-69
2022/09/26 03:54:17;;;;;;;6.70;3.80;;;;;;;;;;4900148;29;20413;-69
2022/09/26 03:56:43;;;;;;;4.97;4.20;;;;;;;;;;4901764;29;20052;-68
2022/09/26 03:59:09;;;;;;;4.13;3.65;;;;;;;;;;4902210;29;20126;-69
2022/09/26 04:01:35;;;;;;;4.43;3.42;;;;;;;;;;4902221;29;20044;-67
2022/09/26 04:04:01;;;;;;;4.55;3.80;;;;;;;;;;4901899;29;20526;-69
2022/09/26 04:06:26;;;;;;;5.78;3.47;;;;;;;;;;4908249;29;20084;-69
2022/09/26 04:08:52;;;;;;;6.25;3.63;;;;;;;;;;4904410;29;20040;-69
2022/09/26 04:11:23;;;;;;;4.55;3.47;;;;;;;;;;4903675;29;20051;-68
2022/09/26 04:13:50;;;;;;;4.57;3.70;;;;;;;;;;4906226;29;20052;-69
2022/09/26 04:16:15;;;;;;;4.68;3.50;;;;;;;;;;4905857;29;20052;-69
2022/09/26 04:18:47;;;;;;;4.07;3.67;;;;;;;;;;4905778;29;21016;-68
2022/09/26 04:21:14;;;;;;;6.43;3.78;;;;;;;;;;4904185;29;20572;-69
2022/09/26 04:24:26;;;;;;;4.43;3.97;;;;;;;;;;4904546;29;20047;-69
2022/09/26 04:26:53;;;;;;;5.07;3.80;;;;;;;;;;4903413;29;20056;-69
2022/09/26 04:29:18;;;;;;;3.60;3.30;;;;;;;;;;4902596;29;20051;-68
2022/09/26 04:31:56;;;;;;;3.40;3.10;;;;;;;;;;4903386;29;20454;-68
2022/09/26 04:34:28;;;;;;;3.97;3.35;;;;;;;;;;4900847;29;20052;-68
2022/09/26 04:36:54;;;;;;;4.35;3.35;;;;;;;;;;4903078;29;20047;-68
2022/09/26 04:39:20;;;;;;;3.10;2.80;;;;;;;;;;4902620;29;20047;-68
2022/09/26 04:41:46;;;;;;;3.10;2.80;;;;;;;;;;4918145;29;20040;-67
2022/09/26 04:44:14;;;;;;;4.22;2.90;;;;;;;;;;4886681;29;20040;-68
2022/09/26 04:46:39;;;;;;;8.55;3.15;;;;;;;;;;4898857;29;20103;-68
2022/09/26 04:49:05;;;;;;;3.65;3.00;;;;;;;;;;4904402;29;20052;-68
2022/09/26 04:51:31;;;;;;;3.15;2.85;;;;;;;;;;4905425;29;20047;-68
2022/09/26 04:53:57;;;;;;;7.28;2.90;;;;;;;;;;4905420;29;20104;-68
2022/09/26 04:56:26;;;;;;;2.63;2.42;;;;;;;;;;4908138;29;20044;-68
2022/09/26 04:58:55;;;;;;;5.03;2.45;;;;;;;;;;4903621;29;20095;-68
2022/09/26 05:01:22;;;;;;;3.60;2.75;;;;;;;;;;4905965;29;20083;-68
2022/09/26 05:04:14;;;;;;;2.50;2.30;;;;;;;;;;4897567;29;20104;-68
2022/09/26 05:06:40;;;;;;;3.30;3.00;;;;;;;;;;4903681;29;20056;-68
2022/09/26 05:09:12;;;;;;;3.20;2.63;;;;;;;;;;4905046;29;20432;-66
2022/09/26 05:11:47;;;;;;;4.30;2.58;;;;;;;;;;4905051;29;20048;-68
2022/09/26 05:14:13;;;;;;;6.25;2.15;;;;;;;;;;4903718;29;20072;-70
2022/09/26 05:16:38;;;;;;;2.72;2.53;;;;;;;;;;4902984;29;20514;-69
2022/09/26 05:19:04;;;;;;;2.85;2.50;;;;;;;;;;4904890;29;20575;-69
2022/09/26 05:21:33;;;;;;;2.78;2.45;;;;;;;;;;4888161;29;20070;-69
2022/09/26 05:26:47;;;;;;;3.05;2.53;;;;;;;;;;4904052;29;20059;-69
2022/09/26 05:29:13;;;;;;;2.92;2.33;;;;;;;;;;4920102;29;20119;-68
2022/09/26 05:31:45;;;;;;;3.08;2.50;;;;;;;;;;4903994;29;20070;-70
2022/09/26 05:34:12;;;;;;;3.83;3.28;;;;;;;;;;4904195;29;20047;-69
2022/09/26 05:36:41;;;;;;;3.08;2.78;;;;;;;;;;4903723;29;20044;-69
2022/09/26 05:41:53;;;;;;;3.22;2.50;;;;;;;;;;4921082;29;20050;-69
2022/09/26 05:44:19;;;;;;;2.75;2.30;;;;;;;;;;4906600;29;20190;-69
2022/09/26 05:46:46;;;;;;;3.30;2.33;;;;;;;;;;4904787;29;20052;-69
2022/09/26 05:49:14;;;;;;;2.03;1.83;;;;;;;;;;4904793;29;20142;-69
2022/09/26 05:51:42;;;;;;;2.50;2.30;;;;;;;;;;4905091;29;20077;-68
2022/09/26 05:54:11;;;;;;;2.75;2.10;;;;;;;;;;4889785;29;20040;-68
2022/09/26 05:56:36;;;;;;;2.58;2.28;;;;;;;;;;4903775;29;20052;-68
2022/09/26 05:59:08;;;;;;;3.78;2.40;;;;;;;;;;4905932;29;20099;-69
2022/09/26 06:02:05;;;;;;;6.18;2.40;;;;;;;;;;4905340;29;20059;-69
2022/09/26 06:05:00;;;;;;;2.20;2.00;;;;;;;;;;4903504;29;20489;-68
2022/09/26 06:07:51;;;;;;;3.83;2.30;;;;;;;;;;4905080;29;20107;-69
2022/09/26 06:10:37;;;;;;;2.70;2.38;;;;;;;;;;4903610;29;20048;-68
2022/09/26 06:13:04;;;;;;;2.53;2.33;;;;;;;;;;4904012;29;20044;-69
2022/09/26 06:15:34;;;;;;;2.67;2.40;;;;;;;;;;4904823;29;20051;-68
2022/09/26 06:18:04;;;;;;;2.90;2.25;;;;;;;;;;4906441;29;20257;-69
2022/09/26 06:20:31;;;;;;;2.42;2.20;;;;;;;;;;4904081;29;20521;-68
2022/09/26 06:22:58;;;;;;;4.05;2.13;;;;;;;;;;4904058;29;20051;-68
2022/09/26 06:25:24;;;;;;;4.68;2.55;;;;;;;;;;4904004;29;20060;-69
2022/09/26 06:27:54;;;;;;;2.75;2.28;;;;;;;;;;4904726;29;20107;-68
2022/09/26 06:30:20;;;;;;;3.33;2.25;;;;;;;;;;4904437;29;20497;-69
2022/09/26 06:32:46;;;;;;;2.30;2.10;;;;;;;;;;4903891;29;20054;-69
2022/09/26 06:35:32;;;;;;;3.30;2.35;;;;;;;;;;4903943;29;20048;-69
2022/09/26 06:38:20;;;;;;;5.18;2.45;;;;;;;;;;4904173;29;20175;-69
2022/09/26 06:40:46;;;;;;;3.00;2.45;;;;;;;;;;4903950;29;20052;-68
2022/09/26 06:43:11;;;;;;;2.65;2.45;;;;;;;;;;4904085;29;20048;-69
2022/09/26 06:45:56;;;;;;;4.65;2.50;;;;;;;;;;4905088;29;20115;-69
2022/09/26 06:48:30;;;;;;;9.32;2.70;;;;;;;;;;4904562;29;20457;-69
2022/09/26 06:51:16;;;;;;;2.95;2.65;;;;;;;;;;4904081;29;20059;-71
2022/09/26 06:53:44;;;;;;;3.22;2.83;;;;;;;;;;4903826;29;20040;-68
2022/09/26 06:56:10;;;;;;;3.28;2.80;;;;;;;;;;4895636;29;20071;-71
2022/09/26 06:58:36;;;;;;;3.55;2.90;;;;;;;;;;4904428;29;20478;-72
2022/09/26 07:01:05;;;;;;;4.82;2.83;;;;;;;;;;4904551;29;20043;-70
2022/09/26 07:03:57;;;;;;;2.95;2.70;;;;;;;;;;4902810;29;20134;-70
2022/09/26 07:06:31;;;;;;;5.72;3.08;;;;;;;;;;4902357;29;20044;-69
2022/09/26 07:08:57;;;;;;;4.43;3.78;;;;;;;;;;4904108;29;20063;-69
2022/09/26 07:11:45;;;;;;;5.03;3.70;;;;;;;;;;4906851;29;20953;-68
2022/09/26 07:14:13;;;;;;;4.82;3.30;;;;;;;;;;4903865;29;20071;-71
2022/09/26 07:16:38;;;;;;;7.30;3.85;;;;;;;;;;4903088;29;20047;-69
2022/09/26 07:19:41;;;;;;;5.75;3.72;;;;;;;;;;4903410;29;20050;-70
2022/09/26 07:22:14;;;;;;;8.73;5.00;;;;;;;;;;4902938;29;20044;-71
2022/09/26 07:24:49;;;;;;;11.13;5.28;;;;;;;;;;4903232;29;20051;-72
2022/09/26 07:27:15;;;;;;;8.15;5.68;;;;;;;;;;4903252;29;20048;-70
2022/09/26 07:29:42;;;;;;;6.68;5.28;;;;;;;;;;4902897;29;20564;-69
2022/09/26 07:32:09;;;;;;;7.82;5.70;;;;;;;;;;4903219;29;20039;-71
2022/09/26 07:34:42;;;;;;;7.50;5.68;;;;;;;;;;4902471;29;20433;-70
2022/09/26 07:37:09;;;;;;;8.82;5.97;;;;;;;;;;4900154;29;20052;-69
2022/09/26 07:39:35;;;;;;;8.00;6.18;;;;;;;;;;4886935;29;20387;-69
2022/09/26 07:42:02;;;;;;;7.38;5.50;;;;;;;;;;4903135;29;20048;-68
2022/09/26 07:44:27;;;;;;;6.78;5.25;;;;;;;;;;4902471;29;20942;-68
2022/09/26 07:52:46;;;;;;;8.05;6.30;;;;;;;;;;4904172;29;20439;-71
2022/09/26 07:55:25;;;;;;;8.95;6.55;;;;;;;;;;4903755;29;20084;-71
2022/09/26 07:58:08;;;;;;;9.75;5.88;;;;;;;;;;4903110;29;20078;-69
2022/09/26 08:00:45;;;;;;;8.38;6.32;;;;;;;;;;4903948;29;20199;-68
2022/09/26 08:03:52;;;;;;;7.43;5.28;;;;;;;;;;4904178;29;20689;-71
2022/09/26 08:06:24;;;;;;;6.57;5.57;;;;;;;;;;4902559;29;20654;-68
2022/09/26 08:08:54;;;;;;;9.68;6.05;;;;;;;;;;4903068;29;20087;-67
2022/09/26 08:11:40;;;;;;;5.75;4.78;;;;;;;;;;4904111;29;20114;-66
2022/09/26 08:14:20;;;;;;;7.15;5.47;;;;;;;;;;4902209;29;20044;-71
2022/09/26 08:17:15;;;;;;;5.53;4.30;;;;;;;;;;4901958;29;20386;-70
2022/09/26 08:19:40;;;;;;;5.93;4.93;;;;;;;;;;4903187;29;20087;-69
2022/09/26 08:22:07;;;;;;;5.97;4.85;;;;;;;;;;4902383;29;20550;-70
2022/09/26 08:24:32;;;;;;;4.88;4.38;;;;;;;;;;4901267;29;20102;-71
2022/09/26 08:27:31;;;;;;;6.60;4.50;;;;;;;;;;4892279;29;20052;-69
2022/09/26 08:29:57;;;;;;;5.75;4.53;;;;;;;;;;4902649;29;20541;-70
2022/09/26 08:32:23;;;;;;;5.53;4.57;;;;;;;;;;4902576;29;20048;-73
2022/09/26 08:34:51;;;;;;;4.82;4.00;;;;;;;;;;4905046;29;20083;-68
2022/09/26 08:37:29;;;;;;;3.95;3.22;;;;;;;;;;4906715;29;20062;-70
2022/09/26 08:40:14;;;;;;;3.03;2.78;;;;;;;;;;4906103;29;20120;-71
2022/09/26 08:43:17;;;;;;;3.10;2.55;;;;;;;;;;4880621;29;20104;-68
2022/09/26 08:46:48;;;;;;;2.38;2.17;;;;;;;;;;4905208;29;20616;-74
2022/09/26 08:49:53;;;;;;;2.53;2.13;;;;;;;;;;4905635;29;20509;-70
2022/09/26 08:53:00;;;;;;;2.40;2.20;;;;;;;;;;4906112;29;20183;-69
2022/09/26 08:55:30;;;;;;;2.53;2.33;;;;;;;;;;4866414;29;20073;-70
2022/09/26 08:58:16;;;;;;;2.63;2.00;;;;;;;;;;4899461;29;20044;-67
2022/09/26 09:00:43;;;;;;;2.92;1.83;;;;;;;;;;4905493;28;20429;-70
2022/09/26 09:03:31;;;;;;;1.70;1.60;;;;;;;;;;4906253;29;20048;-70
2022/09/26 09:06:09;;;;;;;1.70;1.60;;;;;;;;;;4905199;29;20058;-70
2022/09/26 09:08:39;;;;;;;1.50;1.40;;;;;;;;;;4904663;29;20044;-68
2022/09/26 09:12:07;;;;;;;1.15;1.15;;;;;;;;;;4900971;29;20121;-70
2022/09/26 09:14:48;;;;;;;1.10;1.00;;;;;;;;;;4905073;29;20040;-69
2022/09/26 09:17:56;;;;;;;1.15;1.05;;;;;;;;;;4906120;29;20114;-71
2022/09/26 09:21:11;;;;;;;1.23;1.15;;;;;;;;;;4905776;29;20056;-70
2022/09/26 09:24:12;;;;;;;1.77;1.40;;;;;;;;;;4904227;29;20056;-70
2022/09/26 09:26:44;;;;;;;1.33;1.17;;;;;;;;;;4903812;29;20122;-70
2022/09/26 09:29:15;;;;;;;0.98;0.98;;;;;;;;;;4905179;29;20075;-68
2022/09/26 09:31:54;;;;;;;2.75;1.02;;;;;;;;;;4905281;29;20078;-71
2022/09/26 09:34:45;;;;;;;1.50;1.02;;;;;;;;;;4903050;29;20111;-69
2022/09/26 09:37:44;;;;;;;1.42;1.33;;;;;;;;;;4906466;29;20103;-70
2022/09/26 09:40:30;;;;;;;1.38;1.15;;;;;;;;;;4903719;29;20155;-69
2022/09/26 09:43:04;;;;;;;2.90;0.90;;;;;;;;;;4905600;29;20099;-70
2022/09/26 09:45:42;;;;;;;1.40;1.17;;;;;;;;;;4888758;29;20076;-71
2022/09/26 09:48:11;;;;;;;1.10;1.10;;;;;;;;;;4905171;29;20071;-70
2022/09/26 09:50:51;;;;;;;1.50;1.40;;;;;;;;;;4897052;29;20046;-69
2022/09/26 09:53:55;;;;;;;4.65;1.20;;;;;;;;;;4905310;29;20068;-69
2022/09/26 09:56:24;;;;;;;1.20;1.20;;;;;;;;;;4904328;29;20123;-70
2022/09/26 09:59:11;;;;;;;1.15;0.93;;;;;;;;;;4887949;29;20051;-71
2022/09/26 10:02:09;;;;;;;1.65;1.15;;;;;;;;;;4904427;29;20099;-68
2022/09/26 10:05:25;;;;;;;1.38;1.27;;;;;;;;;;4908013;29;20040;-73
2022/09/26 10:07:56;;;;;;;1.27;1.17;;;;;;;;;;4921247;29;20048;-69
2022/09/26 10:11:13;;;;;;;1.90;1.20;;;;;;;;;;4891198;29;20089;-70
2022/09/26 10:14:03;;;;;;;1.70;1.23;;;;;;;;;;4865503;29;20139;-71
2022/09/26 10:17:09;;;;;;;1.65;1.55;;;;;;;;;;4885083;29;20111;-69
2022/09/26 10:20:01;;;;;;;2.03;1.70;;;;;;;;;;4886243;29;20041;-69
2022/09/26 10:22:32;;;;;;;1.92;1.83;;;;;;;;;;4885581;29;20103;-68
2022/09/26 10:25:07;;;;;;;;;;;;;;;;;;4886467;29;20090;-69
2022/09/26 10:27:36;;;;;;;2.55;2.10;;;;;;;;;;4886078;29;20952;-70
2022/09/26 10:30:17;;;;;;;2.25;2.00;;;;;;;;;;4885858;29;20113;-70
2022/09/26 10:32:47;;;;;;;2.15;1.95;;;;;;;;;;4885475;29;20057;-69
2022/09/26 10:35:38;;;;;;;1.80;1.70;;;;;;;;;;4886161;29;20127;-69
2022/09/26 10:38:21;;;;;;;2.95;1.70;;;;;;;;;;4870131;29;20067;-69
2022/09/26 10:41:02;;;;;;;1.50;1.40;;;;;;;;;;4901137;29;20048;-69
2022/09/26 10:43:33;;;;;;;1.58;1.40;;;;;;;;;;4920781;29;20798;-69
2022/09/26 10:46:11;;;;;;;1.50;1.40;;;;;;;;;;4903690;29;20048;-69
2022/09/26 10:49:12;;;;;;;1.40;1.30;;;;;;;;;;4891255;29;20051;-68
2022/09/26 10:51:44;;;;;;;;;;;;;;;;;;4905986;29;20483;-68
2022/09/26 10:54:15;;;;;;;2.67;1.42;;;;;;;;;;4904476;29;19919;-70
2022/09/26 10:56:46;;;;;;;1.02;1.00;;;;;;;;;;4905599;29;20044;-68
2022/09/26 10:59:14;;;;;;;1.60;1.05;;;;;;;;;;4922567;29;20063;-68
2022/09/26 11:01:43;;;;;;;0.90;0.90;;;;;;;;;;4906519;29;20517;-68
2022/09/26 11:07:29;;;;;;;2.58;1.15;;;;;;;;;;4917323;29;20559;-69
2022/09/26 11:10:15;;;;;;;3.50;0.95;;;;;;;;;;4907005;29;20098;-67
2022/09/26 11:12:57;;;;;;;1.20;1.10;;;;;;;;;;4903143;29;20510;-69
2022/09/26 11:15:23;;;;;;;4.07;1.33;;;;;;;;;;4903718;29;20063;-68
2022/09/26 11:17:51;;;;;;;1.20;1.10;;;;;;;;;;4903860;29;20043;-69
2022/09/26 11:20:40;;;;;;;1.30;1.20;;;;;;;;;;4902661;29;20138;-68
2022/09/26 11:23:21;;;;;;;1.10;1.00;;;;;;;;;;4884735;29;20187;-68
2022/09/26 11:26:17;;;;;;;1.48;1.10;;;;;;;;;;4886473;29;20060;-69
2022/09/26 11:28:48;;;;;;;3.38;1.20;;;;;;;;;;4901120;29;20055;-69
2022/09/26 11:31:49;;;;;;;1.60;1.20;;;;;;;;;;4881041;29;20083;-69
2022/09/26 11:34:35;;;;;;;1.73;1.50;;;;;;;;;;4884698;29;20422;-68
2022/09/26 11:37:29;;;;;;;1.63;1.40;;;;;;;;;;4883807;29;20041;-69
2022/09/26 11:40:10;;;;;;;1.80;1.38;;;;;;;;;;4883050;29;20518;-71
2022/09/26 11:43:18;;;;;;;6.07;1.63;;;;;;;;;;4918040;29;20040;-68
2022/09/26 11:45:58;;;;;;;2.03;1.35;;;;;;;;;;4903293;29;20097;-69
2022/09/26 11:49:09;;;;;;;2.13;1.42;;;;;;;;;;4902643;29;20467;-70
2022/09/26 11:52:17;;;;;;;1.33;1.23;;;;;;;;;;4903045;29;20076;-70
2022/09/26 11:54:58;;;;;;;0.90;0.90;;;;;;;;;;4905424;29;20103;-69
2022/09/26 11:57:36;;;;;;;1.58;0.98;;;;;;;;;;4905204;29;20075;-70
2022/09/26 12:00:23;;;;;;;4.80;1.30;;;;;;;;;;4904025;29;20072;-69
2022/09/26 12:03:11;;;;;;;1.35;1.25;;;;;;;;;;4902617;29;20052;-69
2022/09/26 12:05:46;;;;;;;1.70;1.10;;;;;;;;;;4903678;29;20059;-68
2022/09/26 12:08:37;;;;;;;1.35;1.20;;;;;;;;;;4905171;29;20059;-70
2022/09/26 12:11:24;;;;;;;1.25;1.15;;;;;;;;;;4922639;29;20142;-68
2022/09/26 12:14:11;;;;;;;1.20;1.10;;;;;;;;;;4906997;29;20084;-69
2022/09/26 12:16:46;;;;;;;1.20;1.10;;;;;;;;;;4906756;29;20269;-72
2022/09/26 12:19:37;;;;;;;2.10;1.05;;;;;;;;;;4905291;29;20139;-70
2022/09/26 12:22:30;;;;;;;1.13;1.02;;;;;;;;;;4904783;29;20157;-72
2022/09/26 12:25:06;;;;;;;6.07;1.02;;;;;;;;;;4919778;29;20071;-70
2022/09/26 12:27:58;;;;;;;1.45;1.33;;;;;;;;;;4902101;29;20051;-72
2022/09/26 12:30:23;;;;;;;1.35;1.15;;;;;;;;;;4906311;29;20071;-72
2022/09/26 12:37:01;;;;;;;1.17;1.08;;;;;;;;;;4908829;29;20043;-69
2022/09/26 12:40:08;;;;;;;1.20;1.10;;;;;;;;;;4906016;29;20099;-68
2022/09/26 12:43:12;;;;;;;1.27;1.17;;;;;;;;;;4908519;29;20512;-69
2022/09/26 12:46:15;;;;;;;1.42;1.33;;;;;;;;;;4909758;29;20569;-69
2022/09/26 12:49:08;;;;;;;1.38;1.10;;;;;;;;;;4908173;29;20603;-69
2022/09/26 12:51:50;;;;;;;2.97;1.20;;;;;;;;;;4908230;29;20097;-69
2022/09/26 12:58:20;;;;;;;1.83;1.23;;;;;;;;;;4948741;28;20058;-69
2022/09/26 13:01:08;;;;;;;1.25;1.15;;;;;;;;;;4949520;28;20051;-69
2022/09/26 13:03:40;;;;;;;1.40;1.30;;;;;;;;;;4928126;29;20043;-68
2022/09/26 13:06:36;;;;;;;1.50;1.40;;;;;;;;;;4945564;29;20051;-68
2022/09/26 13:09:01;;;;;;;3.70;1.17;;;;;;;;;;4931835;28;20078;-68
2022/09/26 13:11:49;;;;;;;2.60;1.20;;;;;;;;;;4964528;28;20153;-68
2022/09/26 13:14:18;;;;;;;3.58;1.27;;;;;;;;;;4964777;28;20057;-68
2022/09/26 13:17:08;;;;;;;2.20;1.00;;;;;;;;;;4963693;28;20655;-69
2022/09/26 13:19:52;;;;;;;1.10;1.10;;;;;;;;;;4962678;28;20259;-69
2022/09/26 13:22:31;;;;;;;1.73;1.00;;;;;;;;;;4962377;28;20125;-70
2022/09/26 13:25:31;;;;;;;1.20;1.10;;;;;;;;;;4942991;28;20528;-70
2022/09/26 13:28:15;;;;;;;1.33;0.93;;;;;;;;;;4963318;28;20423;-69
2022/09/26 13:30:47;;;;;;;1.20;0.90;;;;;;;;;;4961834;28;20046;-69
2022/09/26 13:33:19;;;;;;;;;;;;;;;;;;4964157;28;20057;-69
2022/09/26 13:35:46;;;;;;;;;;;;;;;;;;4964082;28;19918;-69
2022/09/26 13:38:21;;;;;;;0.95;0.93;;;;;;;;;;4963295;28;19928;-69
2022/09/26 13:40:58;;;;;;;2.10;1.27;;;;;;;;;;4961793;28;20069;-69
2022/09/26 13:43:53;;;;;;;1.08;1.08;;;;;;;;;;4962152;28;20109;-71
2022/09/26 13:46:42;;;;;;;1.23;1.10;;;;;;;;;;4962768;28;20142;-71
2022/09/26 13:49:49;;;;;;;0.98;0.95;;;;;;;;;;4918306;28;20114;-69
2022/09/26 13:52:22;;;;;;;2.05;1.17;;;;;;;;;;4964332;28;20043;-69
2022/09/26 13:54:59;;;;;;;1.40;1.25;;;;;;;;;;4963294;28;20066;-70
2022/09/26 13:57:48;;;;;;;0.85;0.85;;;;;;;;;;4963360;28;20492;-69
2022/09/26 14:00:29;;;;;;;1.23;1.00;;;;;;;;;;4962567;28;20075;-70
2022/09/26 14:03:14;;;;;;;1.20;1.10;;;;;;;;;;4962981;28;20062;-71
2022/09/26 14:05:46;;;;;;;1.13;1.02;;;;;;;;;;4962711;28;20120;-70
2022/09/26 14:11:26;;;;;;;1.40;1.27;;;;;;;;;;4942233;28;20073;-69
2022/09/26 14:14:22;;;;;;;1.05;0.90;;;;;;;;;;4961765;28;20138;-69
2022/09/26 14:16:55;;;;;;;1.02;1.00;;;;;;;;;;4959684;28;20137;-70
2022/09/26 14:19:35;;;;;;;1.48;1.05;;;;;;;;;;4960919;28;20054;-70
2022/09/26 14:22:23;;;;;;;2.17;1.00;;;;;;;;;;4961443;28;20153;-69
2022/09/26 14:24:50;;;;;;;3.28;1.20;;;;;;;;;;4950251;28;20165;-69
2022/09/26 14:27:35;;;;;;;1.88;1.27;;;;;;;;;;4961425;28;20157;-70
2022/09/26 14:30:21;;;;;;;1.10;1.00;;;;;;;;;;4961554;28;20488;-70
2022/09/26 14:32:46;;;;;;;1.38;0.95;;;;;;;;;;4961496;28;20071;-70
2022/09/26 14:35:24;;;;;;;4.32;1.20;;;;;;;;;;4963145;28;20101;-72
2022/09/26 14:37:51;;;;;;;1.15;1.00;;;;;;;;;;4962636;28;20054;-71
2022/09/26 14:40:29;;;;;;;0.88;0.85;;;;;;;;;;4962685;28;20050;-70
2022/09/26 14:42:58;;;;;;;0.95;0.90;;;;;;;;;;4963901;28;20054;-70
2022/09/26 14:45:31;;;;;;;1.10;1.00;;;;;;;;;;4963550;28;20129;-72
2022/09/26 14:48:44;;;;;;;2.38;1.10;;;;;;;;;;4945266;28;20073;-70
2022/09/26 14:51:09;;;;;;;2.58;1.00;;;;;;;;;;4923407;28;20061;-71
2022/09/26 14:53:37;;;;;;;1.35;1.10;;;;;;;;;;4962821;28;20058;-70
2022/09/26 14:56:31;;;;;;;1.67;1.00;;;;;;;;;;4961424;28;20885;-70
2022/09/26 14:59:15;;;;;;;3.33;1.00;;;;;;;;;;4942135;28;20050;-69
2022/09/26 15:01:44;;;;;;;1.30;1.20;;;;;;;;;;4961283;28;20093;-69
2022/09/26 15:04:16;;;;;;;1.33;1.13;;;;;;;;;;4961212;28;20061;-69
2022/09/26 15:06:44;;;;;;;1.10;1.00;;;;;;;;;;4957839;28;20043;-70
2022/09/26 15:09:16;;;;;;;4.85;1.42;;;;;;;;;;4959614;28;20043;-69
2022/09/26 15:11:50;;;;;;;4.28;1.20;;;;;;;;;;4960657;28;20564;-69
2022/09/26 15:14:27;;;;;;;1.17;1.08;;;;;;;;;;4961270;28;20495;-69
2022/09/26 15:16:54;;;;;;;1.88;1.30;;;;;;;;;;4959613;28;20444;-70
2022/09/26 15:19:33;;;;;;;1.15;1.00;;;;;;;;;;4960450;28;20046;-69
2022/09/26 15:22:03;;;;;;;1.45;0.80;;;;;;;;;;4953371;28;20046;-70
2022/09/26 15:24:34;;;;;;;0.93;0.82;;;;;;;;;;4957608;28;20053;-69
2022/09/26 15:27:26;;;;;;;0.70;0.70;;;;;;;;;;4958525;28;20121;-69
2022/09/26 15:29:59;;;;;;;0.70;0.60;;;;;;;;;;4959866;28;20050;-69
2022/09/26 15:32:27;;;;;;;3.40;0.80;;;;;;;;;;4957213;28;20058;-69
2022/09/26 15:34:54;;;;;;;0.85;0.65;;;;;;;;;;4959825;28;20082;-68
2022/09/26 15:37:31;;;;;;;0.80;0.70;;;;;;;;;;4959927;28;20149;-69
2022/09/26 15:40:21;;;;;;;1.38;0.70;;;;;;;;;;4960970;28;20059;-68
2022/09/26 15:42:57;;;;;;;0.70;0.70;;;;;;;;;;4959175;28;20471;-70
2022/09/26 15:45:54;;;;;;;0.93;0.90;;;;;;;;;;4961553;28;20051;-69
2022/09/26 15:48:19;;;;;;;0.80;0.80;;;;;;;;;;4961399;28;20529;-69
2022/09/26 15:50:58;;;;;;;3.20;0.77;;;;;;;;;;4961090;28;20054;-68
2022/09/26 15:53:38;;;;;;;2.72;0.77;;;;;;;;;;4950788;28;20130;-69
2022/09/26 15:56:08;;;;;;;1.10;1.00;;;;;;;;;;4957785;28;20121;-69
2022/09/26 15:59:00;;;;;;;1.45;0.82;;;;;;;;;;4957622;28;20468;-69
2022/09/26 16:01:29;;;;;;;0.68;0.68;;;;;;;;;;4958667;28;20049;-68
2022/09/26 16:04:01;;;;;;;3.45;0.85;;;;;;;;;;4957291;28;20046;-70
2022/09/26 16:06:35;;;;;;;1.65;0.90;;;;;;;;;;4959418;28;20046;-74
2022/09/26 16:09:13;;;;;;;1.17;0.60;;;;;;;;;;4958951;28;20142;-69
2022/09/26 16:11:55;;;;;;;0.90;0.85;;;;;;;;;;4955066;28;20142;-69
2022/09/26 16:14:28;;;;;;;12.43;1.87;;;;;;;;;;4954567;28;20057;-69